RS-0010 weather

Bogatić
Serbia

Public forecast

Using degrees Celsius for public forecast. Weather courtesy of forecast.io.

METAR (pilot weather report)

Closest report is Batajnica Air Base, 32.9 nm (60.9 km) ENE. Retrieved 2019/06/19 04:30 UTC (0 seconds ago):

LYBT 190430Z VRB02KT 4000 BR SCT040 20/20 Q1014 BECMG 8000 NSW

TAF (pilot weather forecast)

Forecast is more than 12 hours old.

Closest forecast is Batajnica Air Base, 32.9 nm (60.9 km) ENE. Retrieved 2019/06/18 00:00 UTC (1 day ago):

TAF LYBT 182300Z 1900/1924 07004KT 9999 SCT040 TX30/1913Z TN16/1903Z TEMPO 1902/1905 3000 BR TEMPO 1911/1917 VRB20G30KT 3000 TSRA SCT030CB BKN033